01:40 Rennrad Moetz - Silz - 4x Agip - Haiming - Apfelstr - Agip - Silz - Moetz
Ort Moetz Datum 04.09.2017 11:25:29
Kategorie Rennrad
Distanz 59,01 Kilometer Steigung 167,0 Meter Gefälle -166,0 Meter
Gesamt Zeit 01:40:26 Aktiv 01:40:26 Pause 00:00:00
Durchs. Tempo 35,3 km/h Tempo max. 44,2 km/h Tempo min. 20,6 km/h
Kalorien 0 Durchs. HF 135 BPM HF max. 153 BPM
Wetter 17 °C PartClouds Min/Max: 15,6 °C/18,3 °C; Druck: 1016,6 mbar; Rel. Feuchte: 61,8%; Taupunkt: 9,0 °C; Windgeschwindigkeit: 0,5 km/h; Niederschlag: 0,0mm
Ausrüstung Bontrager - RL Road
Scott - Addict 20
Shimano - CN-HG601-11
Notiz Moetz - Silz - 4x Agip - Haiming - Apfelstr - Agip - Silz - Moetz ... trocken, leicht windig, perfektes Radlwetter - flott ... garmin connect
Splits
Distanz (km) Gesamt Zeit Split Zeit Split Tempo Split Tempo Höhenprofil (m)
1,00 00:02:01 00:02:01 00:02:01 29,7 -10,12
2,00 00:03:48 00:01:47 00:01:47 33,6 2,12
3,00 00:05:30 00:01:41 00:01:42 35,3 7,87
4,00 00:07:14 00:01:44 00:01:44 34,6 9,20
5,00 00:09:09 00:01:55 00:01:55 31,2 5,69
6,00 00:10:48 00:01:39 00:01:39 36,4 5,79
7,00 00:12:34 00:01:45 00:01:45 34,1 1,24
8,00 00:14:19 00:01:45 00:01:45 34,3 7,13
9,00 00:15:58 00:01:39 00:01:39 36,3 -8,08
10,00 00:17:34 00:01:35 00:01:36 37,6 -9,72
11,00 00:19:18 00:01:44 00:01:45 34,4 -0,84
12,00 00:21:00 00:01:42 00:01:42 35,2 -3,53
13,00 00:22:43 00:01:42 00:01:42 35,2 1,67
14,00 00:24:24 00:01:41 00:01:42 35,3 -4,37
15,00 00:26:09 00:01:44 00:01:44 34,5 -8,43
16,00 00:27:50 00:01:41 00:01:41 35,5 0,33
17,00 00:29:39 00:01:48 00:01:49 33,2 9,21
18,00 00:31:31 00:01:52 00:01:52 32,0 7,35
19,00 00:33:10 00:01:38 00:01:39 36,4 6,10
20,00 00:34:53 00:01:42 00:01:43 35,1 2,09
21,00 00:36:38 00:01:44 00:01:45 34,3 4,79
22,00 00:38:14 00:01:36 00:01:37 37,2 -0,72
23,00 00:39:49 00:01:34 00:01:35 38,0 -9,65
24,00 00:41:30 00:01:41 00:01:41 35,5 -2,96
25,00 00:43:12 00:01:41 00:01:42 35,4 -3,91
26,00 00:44:54 00:01:41 00:01:41 35,5 -1,15
27,00 00:46:33 00:01:39 00:01:40 36,2 0,66
28,00 00:48:16 00:01:42 00:01:42 35,2 -9,32
29,00 00:49:55 00:01:39 00:01:39 36,3 -5,36
30,00 00:51:43 00:01:48 00:01:48 33,3 8,42
31,00 00:53:26 00:01:43 00:01:43 34,9 9,15
32,00 00:55:11 00:01:45 00:01:45 34,3 5,43
33,00 00:56:50 00:01:38 00:01:39 36,5 4,92
34,00 00:58:34 00:01:44 00:01:45 34,3 1,52
35,00 01:00:16 00:01:41 00:01:42 35,4 6,99
36,00 01:01:54 00:01:37 00:01:38 36,9 -10,25
37,00 01:03:27 00:01:33 00:01:33 38,7 -8,65
38,00 01:05:10 00:01:42 00:01:43 35,1 -0,66
39,00 01:06:49 00:01:39 00:01:40 36,1 -3,40
40,00 01:08:29 00:01:40 00:01:40 36,0 1,69
41,00 01:10:07 00:01:38 00:01:38 36,7 -7,45
42,00 01:11:46 00:01:38 00:01:39 36,5 -5,95
43,00 01:13:31 00:01:44 00:01:45 34,3 4,29
44,00 01:15:12 00:01:41 00:01:42 35,4 9,04
45,00 01:17:04 00:01:51 00:01:51 32,3 5,98
46,00 01:18:40 00:01:36 00:01:36 37,4 5,98
47,00 01:20:22 00:01:42 00:01:42 35,1 1,33
48,00 01:22:03 00:01:41 00:01:41 35,6 6,67
49,00 01:23:36 00:01:33 00:01:33 38,7 -6,28
50,00 01:25:13 00:01:36 00:01:36 37,4 -9,91
51,00 01:26:56 00:01:43 00:01:43 34,9 -0,81
52,00 01:28:34 00:01:38 00:01:38 36,6 -3,95
53,00 01:30:14 00:01:39 00:01:40 36,1 1,07
54,00 01:31:52 00:01:37 00:01:38 36,7 -2,58
55,00 01:33:35 00:01:43 00:01:43 34,9 -9,61
56,00 01:35:15 00:01:40 00:01:40 35,9 -1,43
57,00 01:36:58 00:01:42 00:01:43 35,0 -2,11
58,00 01:38:32 00:01:33 00:01:33 38,5 -2,63
59,00 01:40:16 00:01:44 00:01:45 34,3 9,75
59,06 01:40:26 00:00:09 00:02:45 21,8 0,32